Piper Inness — WDC3984 — position and weather

sailwx.info

Track history (hours):
 
Tides and Currents Weather Stations Pressure Air Temp Water Temp Dewpoint Dewpoint Depression Visibility Wind Speed Wind Dir Waves Ship Positions

Piper Inness

Owner: Foss Maritime Co, Seattle, WA. More information available from US FCC via Universal Licensing System and Coast Guard Vessel Documentation Center.

Last reported at 2016-May-01 22:33 UTC. Time now 2016-May-01 23:15 UTC.
Position N 33°46' W 118°13'.

; draft 2 m.

Type: Other ship. MMSI: 367017440.

Date/timePositionNaut miles runAvg speedWind from/ knotsBaromVisibWave heightAir tempDewpointWater temp
2016-May-01 22:33N 33°46' W 118°13'0 0.0
2016-May-01 21:33N 33°46' W 118°13'0 0.0
2016-May-01 20:33N 33°46' W 118°13'0 0.0
2016-May-01 19:32N 33°46' W 118°13'0 0.0
2016-May-01 18:33N 33°46' W 118°13'0 0.0
2016-May-01 17:33N 33°46' W 118°13'0 0.0
2016-May-01 16:33N 33°46' W 118°13'0 0.0
2016-May-01 15:33N 33°46' W 118°13'0 0.0
2016-May-01 14:33N 33°46' W 118°13'0 0.0
2016-May-01 13:33N 33°46' W 118°13'0 0.0
2016-May-01 12:33N 33°46' W 118°13'0 0.0
2016-May-01 11:33N 33°46' W 118°13'0 0.0
2016-May-01 10:33N 33°46' W 118°13'0 0.0
2016-May-01 09:33N 33°46' W 118°13'0 0.0
2016-May-01 08:33N 33°46' W 118°13'0 0.0
2016-May-01 07:33N 33°46' W 118°13'0 0.0
2016-May-01 06:33N 33°46' W 118°13'0 0.0
2016-May-01 05:33N 33°46' W 118°13'0 0.0
2016-May-01 04:33N 33°46' W 118°13'0 0.0
2016-May-01 03:33N 33°46' W 118°13'0 0.0
2016-May-01 02:33N 33°46' W 118°13'0 0.0
2016-May-01 01:33N 33°46' W 118°13'0 0.0
2016-May-01 00:33N 33°46' W 118°13'0 0.0
2016-Apr-30 23:33N 33°46' W 118°13'0 0.0
2016-Apr-30 22:33N 33°46' W 118°13'0 0.0
2016-Apr-30 21:33N 33°46' W 118°13'0 0.0
2016-Apr-30 20:33N 33°46' W 118°13'0 0.0
2016-Apr-30 19:33N 33°46' W 118°13'0 0.0
2016-Apr-30 18:33N 33°46' W 118°13'0 0.0
2016-Apr-30 17:33N 33°46' W 118°13'0 0.0
2016-Apr-30 16:33N 33°46' W 118°13'0 0.0
2016-Apr-30 15:33N 33°46' W 118°13'0 0.0
2016-Apr-30 14:33N 33°46' W 118°13'0 0.0
2016-Apr-30 13:33N 33°46' W 118°13'0 0.0
2016-Apr-30 12:33N 33°46' W 118°13'0 0.0
2016-Apr-30 11:33N 33°46' W 118°13'0 0.0
2016-Apr-30 10:33N 33°46' W 118°13'0 0.0
2016-Apr-30 09:33N 33°46' W 118°13'0 0.0
2016-Apr-30 08:33N 33°46' W 118°13'0 0.0
2016-Apr-30 07:33N 33°46' W 118°13'0 0.0
2016-Apr-30 06:33N 33°46' W 118°13'0 0.0
2016-Apr-30 05:33N 33°46' W 118°13'0 0.0
2016-Apr-30 04:33N 33°46' W 118°13'5 5.2
2016-Apr-30 03:32N 33°42' W 118°10'2216.9
2016-Apr-30 02:13N 33°20' W 118°01'1116.6
2016-Apr-30 01:33N 33°11' W 117°55'3 3.1
2016-Apr-30 00:31N 33°08' W 117°53'0 0.1
2016-Apr-29 23:32N 33°08' W 117°53'2 2.5
2016-Apr-29 22:33N 33°06' W 117°51'1 0.6
2016-Apr-29 21:33N 33°06' W 117°51'2 1.5
2016-Apr-29 20:33N 33°05' W 117°50'0 0.5
2016-Apr-29 19:33N 33°05' W 117°50'1 0.9
2016-Apr-29 18:32N 33°05' W 117°50'1 1.4
2016-Apr-29 17:33N 33°05' W 117°51'3 2.7
2016-Apr-29 16:33N 33°04' W 117°49'2 1.6
2016-Apr-29 15:33N 33°04' W 117°51'3 3.0
2016-Apr-29 14:33N 33°02' W 117°47'2 1.6
2016-Apr-29 13:33N 33°02' W 117°49'3 3.2
2016-Apr-29 12:33N 32°60' W 117°47'0 0.4
2016-Apr-29 11:33N 32°60' W 117°47'0 0.1
2016-Apr-29 10:33N 32°60' W 117°47'2 1.9
2016-Apr-29 09:33N 32°58' W 117°46'1 0.9
2016-Apr-29 08:33N 32°58' W 117°45'1 1.0
2016-Apr-29 07:33N 32°58' W 117°46'2 1.6
2016-Apr-29 06:33N 32°57' W 117°44'0 0.5
2016-Apr-29 05:33N 32°57' W 117°45'2 2.3
2016-Apr-29 04:33N 32°56' W 117°43'2 1.5
2016-Apr-29 03:34N 32°56' W 117°45'2 2.2
2016-Apr-29 02:34N 32°54' W 117°43'1 1.4
2016-Apr-29 01:34N 32°54' W 117°42'2 2.4
2016-Apr-29 00:34N 32°55' W 117°44'2 1.7
2016-Apr-28 23:33N 32°57' W 117°45'2 2.0
2016-Apr-28 22:33N 32°58' W 117°47'4 3.8
2016-Apr-28 21:34N 33°00' W 117°50'5 4.6
2016-Apr-28 20:32N 33°04' W 117°53'4 4.0
2016-Apr-28 19:34N 33°08' W 117°55'4 3.7
2016-Apr-28 18:34N 33°10' W 117°59'5 5.1
2016-Apr-28 17:29N 33°13' W 118°04'1 1.2
2016-Apr-28 16:30N 33°14' W 118°05'4 3.8
2016-Apr-28 15:33N 33°12' W 118°02'4 3.8
2016-Apr-28 14:33N 33°09' W 117°58'4 3.5
2016-Apr-28 13:33N 33°07' W 117°55'4 4.3
2016-Apr-28 12:33N 33°09' W 117°60'8 8.0
2016-Apr-28 11:33N 33°14' W 118°07'6 0.5
2016-Apr-28 00:19N 33°14' W 118°00'7 9.3
2016-Apr-27 23:33N 33°11' W 117°53'6 6.0
2016-Apr-27 22:33N 33°06' W 117°49'1 1.0
2016-Apr-27 21:33N 33°07' W 117°48'2 1.5
2016-Apr-27 20:33N 33°06' W 117°50'1 1.2
2016-Apr-27 19:29N 33°05' W 117°49'1 1.6
2016-Apr-27 18:33N 33°04' W 117°48'1 1.1
2016-Apr-27 17:30N 33°04' W 117°50'3 2.8
2016-Apr-27 16:32N 33°03' W 117°47'1 1.2
2016-Apr-27 15:33N 33°03' W 117°48'2 2.5
2016-Apr-27 14:33N 33°01' W 117°46'1 1.4
2016-Apr-27 13:33N 33°01' W 117°47'0 0.2
2016-Apr-27 12:33N 33°01' W 117°47'2 2.2
2016-Apr-27 11:34N 32°59' W 117°46'1 0.9
2016-Apr-27 10:34N 32°58' W 117°47'1 1.2
2016-Apr-27 09:33N 32°57' W 117°46'1 0.9
2016-Apr-27 08:33N 32°57' W 117°45'0 0.5
2016-Apr-27 07:33N 32°56' W 117°45'1 0.8
2016-Apr-27 06:33N 32°57' W 117°45'3 2.7
2016-Apr-27 05:34N 32°55' W 117°43'1 1.4
2016-Apr-27 04:33N 32°56' W 117°44'2 2.0
2016-Apr-27 03:33N 32°55' W 117°42'2 2.2
2016-Apr-27 02:33N 32°57' W 117°44'5 4.8
2016-Apr-27 01:33N 33°01' W 117°47'5 4.8
2016-Apr-27 00:33N 33°04' W 117°51'5 4.4
2016-Apr-26 23:32N 33°07' W 117°55'2 1.6
2016-Apr-26 22:28N 33°09' W 117°56'0 0.4
2016-Apr-26 21:33N 33°09' W 117°56'1 0.7
2016-Apr-26 20:22N 33°08' W 117°56'5 6.0
2016-Apr-26 19:33N 33°13' W 117°57'3316.4
2016-Apr-26 17:32N 33°44' W 118°11'3 2.9
2016-Apr-26 16:33N 33°46' W 118°13'1 0.7
2016-Apr-26 15:34N 33°46' W 118°13'1 0.7
2016-Apr-26 14:33N 33°46' W 118°13'0 0.0
2016-Apr-26 13:33N 33°46' W 118°13'0 0.0
2016-Apr-26 12:33N 33°46' W 118°13'0 0.0
2016-Apr-26 11:33N 33°46' W 118°13'0 0.0
2016-Apr-26 10:33N 33°46' W 118°13'0 0.0
2016-Apr-26 09:33N 33°46' W 118°13'0 0.0
2016-Apr-26 08:33N 33°46' W 118°13'0 0.0
2016-Apr-26 07:33N 33°46' W 118°13'0 0.0
2016-Apr-26 06:33N 33°46' W 118°13'0 0.0
2016-Apr-26 05:34N 33°46' W 118°13'0 0.0
2016-Apr-26 04:33N 33°46' W 118°13'0 0.0
2016-Apr-26 03:32N 33°46' W 118°13'0 0.0
2016-Apr-26 02:33N 33°46' W 118°13'0 0.0
2016-Apr-26 01:33N 33°46' W 118°13'0 0.0
2016-Apr-26 00:33N 33°46' W 118°13'0 0.0
2016-Apr-25 23:33N 33°46' W 118°13'0 0.0
2016-Apr-25 22:33N 33°46' W 118°13'0 0.0
2016-Apr-25 21:33N 33°46' W 118°13'0 0.0
2016-Apr-25 20:33N 33°46' W 118°13'0 0.0
2016-Apr-25 19:33N 33°46' W 118°13'0 0.0
2016-Apr-25 18:33N 33°46' W 118°13'0 0.0
2016-Apr-25 17:33N 33°46' W 118°13'0 0.0
2016-Apr-25 16:33N 33°46' W 118°13'0 0.0
2016-Apr-25 15:30N 33°46' W 118°13'0 0.0
2016-Apr-25 13:24N 33°46' W 118°13'0 0.0
2016-Apr-25 12:33N 33°46' W 118°13'0 0.0
2016-Apr-25 11:33N 33°46' W 118°13'0 0.0
2016-Apr-25 10:30N 33°46' W 118°13'0 0.0
2016-Apr-25 09:33N 33°46' W 118°13'0 0.0
2016-Apr-25 08:33N 33°46' W 118°13'0 0.0
2016-Apr-25 07:33N 33°46' W 118°13'0 0.0
2016-Apr-25 06:33N 33°46' W 118°13'0 0.0
2016-Apr-25 05:33N 33°46' W 118°13'0 0.0
2016-Apr-25 04:33N 33°46' W 118°13'0 0.0
2016-Apr-25 03:33N 33°46' W 118°13'0 0.0
2016-Apr-25 02:30N 33°46' W 118°13'0 0.0
2016-Apr-25 01:32N 33°46' W 118°13'0 0.0
2016-Apr-25 00:33N 33°46' W 118°13'0 0.0
2016-Apr-24 23:28N 33°46' W 118°13'0 0.0
2016-Apr-24 22:33N 33°46' W 118°13'0 0.0
2016-Apr-24 21:33N 33°46' W 118°13'0 0.0
2016-Apr-24 20:33N 33°46' W 118°13'0 0.0
2016-Apr-24 19:33N 33°46' W 118°13'0 0.0
2016-Apr-24 18:33N 33°46' W 118°13'0 0.0
2016-Apr-24 17:33N 33°46' W 118°13'0 0.0
2016-Apr-24 16:33N 33°46' W 118°13'0 0.0
2016-Apr-24 15:33N 33°46' W 118°13'0 0.0
2016-Apr-24 14:29N 33°46' W 118°13'0 0.0
2016-Apr-24 13:33N 33°46' W 118°13'0 0.0
2016-Apr-24 12:32N 33°46' W 118°13'0 0.0
2016-Apr-24 11:30N 33°46' W 118°13'0 0.0
2016-Apr-24 10:33N 33°46' W 118°13'0 0.0
2016-Apr-24 09:30N 33°46' W 118°13'0 0.0
2016-Apr-24 08:23N 33°46' W 118°13'0 0.0
2016-Apr-24 05:24N 33°46' W 118°13'0 0.0
2016-Apr-24 03:29N 33°46' W 118°13'0 0.0
2016-Apr-24 02:32N 33°46' W 118°13'0 0.0
2016-Apr-24 01:04N 33°46' W 118°13'0 0.0
2016-Apr-24 00:16N 33°46' W 118°13'0 0.0
2016-Apr-23 23:13N 33°46' W 118°13'0 0.0
2016-Apr-23 22:32N 33°46' W 118°13'0 0.0
2016-Apr-23 20:25N 33°46' W 118°13'0 0.0
2016-Apr-23 19:24N 33°46' W 118°13'0 0.0
2016-Apr-23 18:23N 33°46' W 118°13'0 0.0
2016-Apr-23 14:31N 33°46' W 118°13'0 0.0
2016-Apr-23 13:21N 33°46' W 118°13'0 0.0
2016-Apr-23 11:27N 33°46' W 118°13'0 0.0
2016-Apr-23 09:13N 33°46' W 118°13'0 0.0
2016-Apr-23 08:28N 33°46' W 118°13'0 0.0
2016-Apr-23 06:11N 33°46' W 118°13'0 0.0
2016-Apr-23 05:30N 33°46' W 118°13'0 0.0
2016-Apr-23 03:28N 33°46' W 118°13'0 0.0
2016-Apr-22 19:23N 33°46' W 118°13'0 0.0
2016-Apr-22 18:11N 33°46' W 118°13'0 0.0
2016-Apr-22 17:26N 33°46' W 118°13'0 0.0
2016-Apr-22 14:33N 33°46' W 118°13'0 0.0
2016-Apr-22 13:22N 33°46' W 118°13'0 0.0
2016-Apr-22 03:32N 33°46' W 118°13'0 0.0
2016-Apr-22 02:32N 33°46' W 118°13'0 0.0
2016-Apr-22 01:33N 33°46' W 118°13'0 0.0
2016-Apr-22 00:30N 33°46' W 118°13'0 0.0
2016-Apr-21 23:33N 33°46' W 118°13'  
Track history (hours):
 
Tides and Currents Weather Stations Pressure Air Temp Water Temp Dewpoint Dewpoint Depression Visibility Wind Speed Wind Dir Waves Ship Positions

Piper Inness

Owner: Foss Maritime Co, Seattle, WA. More information available from US FCC via Universal Licensing System and Coast Guard Vessel Documentation Center.

Last reported at 2016-May-01 22:33 UTC. Time now 2016-May-01 23:15 UTC.
Position N 33°46' W 118°13'.

; draft 2 m.

Type: Other ship. MMSI: 367017440.

Date/timePositionNaut miles runAvg speedWind from/ knotsBaromVisibWave heightAir tempDewpointWater temp
2016-May-01 22:33N 33°46' W 118°13'0 0.0
2016-May-01 21:33N 33°46' W 118°13'0 0.0
2016-May-01 20:33N 33°46' W 118°13'0 0.0
2016-May-01 19:32N 33°46' W 118°13'0 0.0
2016-May-01 18:33N 33°46' W 118°13'0 0.0
2016-May-01 17:33N 33°46' W 118°13'0 0.0
2016-May-01 16:33N 33°46' W 118°13'0 0.0
2016-May-01 15:33N 33°46' W 118°13'0 0.0
2016-May-01 14:33N 33°46' W 118°13'0 0.0
2016-May-01 13:33N 33°46' W 118°13'0 0.0
2016-May-01 12:33N 33°46' W 118°13'0 0.0
2016-May-01 11:33N 33°46' W 118°13'0 0.0
2016-May-01 10:33N 33°46' W 118°13'0 0.0
2016-May-01 09:33N 33°46' W 118°13'0 0.0
2016-May-01 08:33N 33°46' W 118°13'0 0.0
2016-May-01 07:33N 33°46' W 118°13'0 0.0
2016-May-01 06:33N 33°46' W 118°13'0 0.0
2016-May-01 05:33N 33°46' W 118°13'0 0.0
2016-May-01 04:33N 33°46' W 118°13'0 0.0
2016-May-01 03:33N 33°46' W 118°13'0 0.0
2016-May-01 02:33N 33°46' W 118°13'0 0.0
2016-May-01 01:33N 33°46' W 118°13'0 0.0
2016-May-01 00:33N 33°46' W 118°13'0 0.0
2016-Apr-30 23:33N 33°46' W 118°13'0 0.0
2016-Apr-30 22:33N 33°46' W 118°13'0 0.0
2016-Apr-30 21:33N 33°46' W 118°13'0 0.0
2016-Apr-30 20:33N 33°46' W 118°13'0 0.0
2016-Apr-30 19:33N 33°46' W 118°13'0 0.0
2016-Apr-30 18:33N 33°46' W 118°13'0 0.0
2016-Apr-30 17:33N 33°46' W 118°13'0 0.0
2016-Apr-30 16:33N 33°46' W 118°13'0 0.0
2016-Apr-30 15:33N 33°46' W 118°13'0 0.0
2016-Apr-30 14:33N 33°46' W 118°13'0 0.0
2016-Apr-30 13:33N 33°46' W 118°13'0 0.0
2016-Apr-30 12:33N 33°46' W 118°13'0 0.0
2016-Apr-30 11:33N 33°46' W 118°13'0 0.0
2016-Apr-30 10:33N 33°46' W 118°13'0 0.0
2016-Apr-30 09:33N 33°46' W 118°13'0 0.0
2016-Apr-30 08:33N 33°46' W 118°13'0 0.0
2016-Apr-30 07:33N 33°46' W 118°13'0 0.0
2016-Apr-30 06:33N 33°46' W 118°13'0 0.0
2016-Apr-30 05:33N 33°46' W 118°13'0 0.0
2016-Apr-30 04:33N 33°46' W 118°13'5 5.2
2016-Apr-30 03:32N 33°42' W 118°10'2216.9
2016-Apr-30 02:13N 33°20' W 118°01'1116.6
2016-Apr-30 01:33N 33°11' W 117°55'3 3.1
2016-Apr-30 00:31N 33°08' W 117°53'0 0.1
2016-Apr-29 23:32N 33°08' W 117°53'2 2.5
2016-Apr-29 22:33N 33°06' W 117°51'1 0.6
2016-Apr-29 21:33N 33°06' W 117°51'2 1.5
2016-Apr-29 20:33N 33°05' W 117°50'0 0.5
2016-Apr-29 19:33N 33°05' W 117°50'1 0.9
2016-Apr-29 18:32N 33°05' W 117°50'1 1.4
2016-Apr-29 17:33N 33°05' W 117°51'3 2.7
2016-Apr-29 16:33N 33°04' W 117°49'2 1.6
2016-Apr-29 15:33N 33°04' W 117°51'3 3.0
2016-Apr-29 14:33N 33°02' W 117°47'2 1.6
2016-Apr-29 13:33N 33°02' W 117°49'3 3.2
2016-Apr-29 12:33N 32°60' W 117°47'0 0.4
2016-Apr-29 11:33N 32°60' W 117°47'0 0.1
2016-Apr-29 10:33N 32°60' W 117°47'2 1.9
2016-Apr-29 09:33N 32°58' W 117°46'1 0.9
2016-Apr-29 08:33N 32°58' W 117°45'1 1.0
2016-Apr-29 07:33N 32°58' W 117°46'2 1.6
2016-Apr-29 06:33N 32°57' W 117°44'0 0.5
2016-Apr-29 05:33N 32°57' W 117°45'2 2.3
2016-Apr-29 04:33N 32°56' W 117°43'2 1.5
2016-Apr-29 03:34N 32°56' W 117°45'2 2.2
2016-Apr-29 02:34N 32°54' W 117°43'1 1.4
2016-Apr-29 01:34N 32°54' W 117°42'2 2.4
2016-Apr-29 00:34N 32°55' W 117°44'2 1.7
2016-Apr-28 23:33N 32°57' W 117°45'2 2.0
2016-Apr-28 22:33N 32°58' W 117°47'4 3.8
2016-Apr-28 21:34N 33°00' W 117°50'5 4.6
2016-Apr-28 20:32N 33°04' W 117°53'4 4.0
2016-Apr-28 19:34N 33°08' W 117°55'4 3.7
2016-Apr-28 18:34N 33°10' W 117°59'5 5.1
2016-Apr-28 17:29N 33°13' W 118°04'1 1.2
2016-Apr-28 16:30N 33°14' W 118°05'4 3.8
2016-Apr-28 15:33N 33°12' W 118°02'4 3.8
2016-Apr-28 14:33N 33°09' W 117°58'4 3.5
2016-Apr-28 13:33N 33°07' W 117°55'4 4.3
2016-Apr-28 12:33N 33°09' W 117°60'8 8.0
2016-Apr-28 11:33N 33°14' W 118°07'6 0.5
2016-Apr-28 00:19N 33°14' W 118°00'7 9.3
2016-Apr-27 23:33N 33°11' W 117°53'6 6.0
2016-Apr-27 22:33N 33°06' W 117°49'1 1.0
2016-Apr-27 21:33N 33°07' W 117°48'2 1.5
2016-Apr-27 20:33N 33°06' W 117°50'1 1.2
2016-Apr-27 19:29N 33°05' W 117°49'1 1.6
2016-Apr-27 18:33N 33°04' W 117°48'1 1.1
2016-Apr-27 17:30N 33°04' W 117°50'3 2.8
2016-Apr-27 16:32N 33°03' W 117°47'1 1.2
2016-Apr-27 15:33N 33°03' W 117°48'2 2.5
2016-Apr-27 14:33N 33°01' W 117°46'1 1.4
2016-Apr-27 13:33N 33°01' W 117°47'0 0.2
2016-Apr-27 12:33N 33°01' W 117°47'2 2.2
2016-Apr-27 11:34N 32°59' W 117°46'1 0.9
2016-Apr-27 10:34N 32°58' W 117°47'1 1.2
2016-Apr-27 09:33N 32°57' W 117°46'1 0.9
2016-Apr-27 08:33N 32°57' W 117°45'0 0.5
2016-Apr-27 07:33N 32°56' W 117°45'1 0.8
2016-Apr-27 06:33N 32°57' W 117°45'3 2.7
2016-Apr-27 05:34N 32°55' W 117°43'1 1.4
2016-Apr-27 04:33N 32°56' W 117°44'2 2.0
2016-Apr-27 03:33N 32°55' W 117°42'2 2.2
2016-Apr-27 02:33N 32°57' W 117°44'5 4.8
2016-Apr-27 01:33N 33°01' W 117°47'5 4.8
2016-Apr-27 00:33N 33°04' W 117°51'5 4.4
2016-Apr-26 23:32N 33°07' W 117°55'2 1.6
2016-Apr-26 22:28N 33°09' W 117°56'0 0.4
2016-Apr-26 21:33N 33°09' W 117°56'1 0.7
2016-Apr-26 20:22N 33°08' W 117°56'5 6.0
2016-Apr-26 19:33N 33°13' W 117°57'3316.4
2016-Apr-26 17:32N 33°44' W 118°11'3 2.9
2016-Apr-26 16:33N 33°46' W 118°13'1 0.7
2016-Apr-26 15:34N 33°46' W 118°13'1 0.7
2016-Apr-26 14:33N 33°46' W 118°13'0 0.0
2016-Apr-26 13:33N 33°46' W 118°13'0 0.0
2016-Apr-26 12:33N 33°46' W 118°13'0 0.0
2016-Apr-26 11:33N 33°46' W 118°13'0 0.0
2016-Apr-26 10:33N 33°46' W 118°13'0 0.0
2016-Apr-26 09:33N 33°46' W 118°13'0 0.0
2016-Apr-26 08:33N 33°46' W 118°13'0 0.0
2016-Apr-26 07:33N 33°46' W 118°13'0 0.0
2016-Apr-26 06:33N 33°46' W 118°13'0 0.0
2016-Apr-26 05:34N 33°46' W 118°13'0 0.0
2016-Apr-26 04:33N 33°46' W 118°13'0 0.0
2016-Apr-26 03:32N 33°46' W 118°13'0 0.0
2016-Apr-26 02:33N 33°46' W 118°13'0 0.0
2016-Apr-26 01:33N 33°46' W 118°13'0 0.0
2016-Apr-26 00:33N 33°46' W 118°13'0 0.0
2016-Apr-25 23:33N 33°46' W 118°13'0 0.0
2016-Apr-25 22:33N 33°46' W 118°13'0 0.0
2016-Apr-25 21:33N 33°46' W 118°13'0 0.0
2016-Apr-25 20:33N 33°46' W 118°13'0 0.0
2016-Apr-25 19:33N 33°46' W 118°13'0 0.0
2016-Apr-25 18:33N 33°46' W 118°13'0 0.0
2016-Apr-25 17:33N 33°46' W 118°13'0 0.0
2016-Apr-25 16:33N 33°46' W 118°13'0 0.0
2016-Apr-25 15:30N 33°46' W 118°13'0 0.0
2016-Apr-25 13:24N 33°46' W 118°13'0 0.0
2016-Apr-25 12:33N 33°46' W 118°13'0 0.0
2016-Apr-25 11:33N 33°46' W 118°13'0 0.0
2016-Apr-25 10:30N 33°46' W 118°13'0 0.0
2016-Apr-25 09:33N 33°46' W 118°13'0 0.0
2016-Apr-25 08:33N 33°46' W 118°13'0 0.0
2016-Apr-25 07:33N 33°46' W 118°13'0 0.0
2016-Apr-25 06:33N 33°46' W 118°13'0 0.0
2016-Apr-25 05:33N 33°46' W 118°13'0 0.0
2016-Apr-25 04:33N 33°46' W 118°13'0 0.0
2016-Apr-25 03:33N 33°46' W 118°13'0 0.0
2016-Apr-25 02:30N 33°46' W 118°13'0 0.0
2016-Apr-25 01:32N 33°46' W 118°13'0 0.0
2016-Apr-25 00:33N 33°46' W 118°13'0 0.0
2016-Apr-24 23:28N 33°46' W 118°13'0 0.0
2016-Apr-24 22:33N 33°46' W 118°13'0 0.0
2016-Apr-24 21:33N 33°46' W 118°13'0 0.0
2016-Apr-24 20:33N 33°46' W 118°13'0 0.0
2016-Apr-24 19:33N 33°46' W 118°13'0 0.0
2016-Apr-24 18:33N 33°46' W 118°13'0 0.0
2016-Apr-24 17:33N 33°46' W 118°13'0 0.0
2016-Apr-24 16:33N 33°46' W 118°13'0 0.0
2016-Apr-24 15:33N 33°46' W 118°13'0 0.0
2016-Apr-24 14:29N 33°46' W 118°13'0 0.0
2016-Apr-24 13:33N 33°46' W 118°13'0 0.0
2016-Apr-24 12:32N 33°46' W 118°13'0 0.0
2016-Apr-24 11:30N 33°46' W 118°13'0 0.0
2016-Apr-24 10:33N 33°46' W 118°13'0 0.0
2016-Apr-24 09:30N 33°46' W 118°13'0 0.0
2016-Apr-24 08:23N 33°46' W 118°13'0 0.0
2016-Apr-24 05:24N 33°46' W 118°13'0 0.0
2016-Apr-24 03:29N 33°46' W 118°13'0 0.0
2016-Apr-24 02:32N 33°46' W 118°13'0 0.0
2016-Apr-24 01:04N 33°46' W 118°13'0 0.0
2016-Apr-24 00:16N 33°46' W 118°13'0 0.0
2016-Apr-23 23:13N 33°46' W 118°13'0 0.0
2016-Apr-23 22:32N 33°46' W 118°13'0 0.0
2016-Apr-23 20:25N 33°46' W 118°13'0 0.0
2016-Apr-23 19:24N 33°46' W 118°13'0 0.0
2016-Apr-23 18:23N 33°46' W 118°13'0 0.0
2016-Apr-23 14:31N 33°46' W 118°13'0 0.0
2016-Apr-23 13:21N 33°46' W 118°13'0 0.0
2016-Apr-23 11:27N 33°46' W 118°13'0 0.0
2016-Apr-23 09:13N 33°46' W 118°13'0 0.0
2016-Apr-23 08:28N 33°46' W 118°13'0 0.0
2016-Apr-23 06:11N 33°46' W 118°13'0 0.0
2016-Apr-23 05:30N 33°46' W 118°13'0 0.0
2016-Apr-23 03:28N 33°46' W 118°13'0 0.0
2016-Apr-22 19:23N 33°46' W 118°13'0 0.0
2016-Apr-22 18:11N 33°46' W 118°13'0 0.0
2016-Apr-22 17:26N 33°46' W 118°13'0 0.0
2016-Apr-22 14:33N 33°46' W 118°13'0 0.0
2016-Apr-22 13:22N 33°46' W 118°13'0 0.0
2016-Apr-22 03:32N 33°46' W 118°13'0 0.0
2016-Apr-22 02:32N 33°46' W 118°13'0 0.0
2016-Apr-22 01:33N 33°46' W 118°13'0 0.0
2016-Apr-22 00:30N 33°46' W 118°13'0 0.0
2016-Apr-21 23:33N 33°46' W 118°13'  

Dump ship's entire track history